sensor_id;sensor_type;location;lat;lon;timestamp;P1;durP1;ratioP1;P2;durP2;ratioP2
7759;SDS011;3924;48.830;9.262;2023-04-25T00:07:11;1.00;;;1.00;;
7759;SDS011;3924;48.830;9.262;2023-04-25T00:14:33;1.10;;;1.10;;
7759;SDS011;3924;48.830;9.262;2023-04-25T00:21:47;1.00;;;1.00;;
7759;SDS011;3924;48.830;9.262;2023-04-25T00:28:45;1.00;;;1.00;;
7759;SDS011;3924;48.830;9.262;2023-04-25T00:31:46;0.90;;;0.90;;
7759;SDS011;3924;48.830;9.262;2023-04-25T00:34:32;1.47;;;1.10;;
7759;SDS011;3924;48.830;9.262;2023-04-25T00:37:24;1.07;;;1.07;;
7759;SDS011;3924;48.830;9.262;2023-04-25T00:58:31;1.70;;;1.00;;
7759;SDS011;3924;48.830;9.262;2023-04-25T01:05:11;1.20;;;1.13;;
7759;SDS011;3924;48.830;9.262;2023-04-25T01:07:57;1.00;;;1.00;;
7759;SDS011;3924;48.830;9.262;2023-04-25T01:18:14;1.23;;;1.10;;
7759;SDS011;3924;48.830;9.262;2023-04-25T01:24:02;0.90;;;0.90;;
7759;SDS011;3924;48.830;9.262;2023-04-25T01:26:29;1.30;;;1.20;;
7759;SDS011;3924;48.830;9.262;2023-04-25T01:28:56;2.40;;;1.00;;
7759;SDS011;3924;48.830;9.262;2023-04-25T01:31:23;1.07;;;1.00;;
7759;SDS011;3924;48.830;9.262;2023-04-25T01:33:50;2.67;;;1.20;;
7759;SDS011;3924;48.830;9.262;2023-04-25T01:36:16;1.10;;;1.10;;
7759;SDS011;3924;48.830;9.262;2023-04-25T01:38:43;1.80;;;1.23;;
7759;SDS011;3924;48.830;9.262;2023-04-25T01:41:12;1.80;;;1.30;;
7759;SDS011;3924;48.830;9.262;2023-04-25T01:43:40;1.20;;;1.10;;
7759;SDS011;3924;48.830;9.262;2023-04-25T01:46:06;1.20;;;1.20;;
7759;SDS011;3924;48.830;9.262;2023-04-25T01:48:33;1.30;;;1.27;;
7759;SDS011;3924;48.830;9.262;2023-04-25T01:50:59;1.67;;;1.10;;
7759;SDS011;3924;48.830;9.262;2023-04-25T01:53:26;1.33;;;1.13;;
7759;SDS011;3924;48.830;9.262;2023-04-25T01:55:52;4.83;;;1.40;;
7759;SDS011;3924;48.830;9.262;2023-04-25T01:58:19;1.30;;;1.10;;
7759;SDS011;3924;48.830;9.262;2023-04-25T02:00:46;2.23;;;1.30;;
7759;SDS011;3924;48.830;9.262;2023-04-25T02:03:12;2.20;;;1.23;;
7759;SDS011;3924;48.830;9.262;2023-04-25T02:05:39;1.40;;;1.03;;
7759;SDS011;3924;48.830;9.262;2023-04-25T02:08:06;1.90;;;1.43;;
7759;SDS011;3924;48.830;9.262;2023-04-25T02:10:34;2.33;;;1.23;;
7759;SDS011;3924;48.830;9.262;2023-04-25T02:13:01;1.47;;;1.37;;
7759;SDS011;3924;48.830;9.262;2023-04-25T02:15:28;1.00;;;1.00;;
7759;SDS011;3924;48.830;9.262;2023-04-25T02:17:55;2.43;;;1.40;;
7759;SDS011;3924;48.830;9.262;2023-04-25T02:20:22;1.20;;;1.20;;
7759;SDS011;3924;48.830;9.262;2023-04-25T02:22:49;1.03;;;1.03;;
7759;SDS011;3924;48.830;9.262;2023-04-25T02:25:16;1.37;;;1.23;;
7759;SDS011;3924;48.830;9.262;2023-04-25T02:27:46;1.20;;;1.10;;
7759;SDS011;3924;48.830;9.262;2023-04-25T02:30:13;5.70;;;1.17;;
7759;SDS011;3924;48.830;9.262;2023-04-25T02:32:40;1.57;;;1.20;;
7759;SDS011;3924;48.830;9.262;2023-04-25T02:35:07;4.37;;;1.20;;
7759;SDS011;3924;48.830;9.262;2023-04-25T02:37:34;2.43;;;1.10;;
7759;SDS011;3924;48.830;9.262;2023-04-25T02:40:03;1.57;;;1.47;;
7759;SDS011;3924;48.830;9.262;2023-04-25T02:42:30;1.20;;;1.10;;
7759;SDS011;3924;48.830;9.262;2023-04-25T02:44:57;1.10;;;1.10;;
7759;SDS011;3924;48.830;9.262;2023-04-25T02:47:24;0.97;;;0.97;;
7759;SDS011;3924;48.830;9.262;2023-04-25T02:49:50;1.20;;;1.20;;
7759;SDS011;3924;48.830;9.262;2023-04-25T02:52:17;1.40;;;1.20;;
7759;SDS011;3924;48.830;9.262;2023-04-25T02:54:43;1.30;;;1.20;;
7759;SDS011;3924;48.830;9.262;2023-04-25T02:57:10;0.93;;;0.93;;
7759;SDS011;3924;48.830;9.262;2023-04-25T02:59:36;4.30;;;1.20;;
7759;SDS011;3924;48.830;9.262;2023-04-25T03:02:02;1.40;;;1.30;;
7759;SDS011;3924;48.830;9.262;2023-04-25T03:04:29;1.20;;;1.10;;
7759;SDS011;3924;48.830;9.262;2023-04-25T03:06:55;1.60;;;1.40;;
7759;SDS011;3924;48.830;9.262;2023-04-25T03:09:22;1.20;;;1.10;;
7759;SDS011;3924;48.830;9.262;2023-04-25T03:11:49;1.67;;;1.20;;
7759;SDS011;3924;48.830;9.262;2023-04-25T03:14:15;1.60;;;1.50;;
7759;SDS011;3924;48.830;9.262;2023-04-25T03:16:42;1.33;;;1.20;;
7759;SDS011;3924;48.830;9.262;2023-04-25T03:19:08;1.53;;;1.33;;
7759;SDS011;3924;48.830;9.262;2023-04-25T03:21:35;1.30;;;1.20;;
7759;SDS011;3924;48.830;9.262;2023-04-25T03:24:02;1.10;;;1.10;;
7759;SDS011;3924;48.830;9.262;2023-04-25T03:26:30;1.40;;;1.30;;
7759;SDS011;3924;48.830;9.262;2023-04-25T03:28:57;1.70;;;1.30;;
7759;SDS011;3924;48.830;9.262;2023-04-25T03:31:23;1.30;;;1.17;;
7759;SDS011;3924;48.830;9.262;2023-04-25T03:33:50;1.50;;;1.40;;
7759;SDS011;3924;48.830;9.262;2023-04-25T03:36:16;4.60;;;1.80;;
7759;SDS011;3924;48.830;9.262;2023-04-25T03:38:43;1.80;;;1.70;;
7759;SDS011;3924;48.830;9.262;2023-04-25T03:41:09;1.40;;;1.30;;
7759;SDS011;3924;48.830;9.262;2023-04-25T03:43:36;1.73;;;1.63;;
7759;SDS011;3924;48.830;9.262;2023-04-25T03:46:02;1.47;;;1.37;;
7759;SDS011;3924;48.830;9.262;2023-04-25T03:48:29;1.63;;;1.47;;
7759;SDS011;3924;48.830;9.262;2023-04-25T03:50:55;1.50;;;1.40;;
7759;SDS011;3924;48.830;9.262;2023-04-25T03:53:22;1.97;;;1.77;;
7759;SDS011;3924;48.830;9.262;2023-04-25T03:55:48;2.00;;;1.40;;
7759;SDS011;3924;48.830;9.262;2023-04-25T03:58:15;1.10;;;1.10;;
7759;SDS011;3924;48.830;9.262;2023-04-25T04:00:41;1.50;;;1.40;;
7759;SDS011;3924;48.830;9.262;2023-04-25T04:03:08;6.97;;;1.63;;
7759;SDS011;3924;48.830;9.262;2023-04-25T04:05:34;2.80;;;2.10;;
7759;SDS011;3924;48.830;9.262;2023-04-25T04:08:01;2.50;;;1.50;;
7759;SDS011;3924;48.830;9.262;2023-04-25T04:10:27;1.70;;;1.60;;
7759;SDS011;3924;48.830;9.262;2023-04-25T04:12:54;3.93;;;1.77;;
7759;SDS011;3924;48.830;9.262;2023-04-25T04:15:20;1.40;;;1.30;;
7759;SDS011;3924;48.830;9.262;2023-04-25T04:17:48;6.37;;;1.90;;
7759;SDS011;3924;48.830;9.262;2023-04-25T04:20:15;1.50;;;1.40;;
7759;SDS011;3924;48.830;9.262;2023-04-25T04:22:41;1.87;;;1.60;;
7759;SDS011;3924;48.830;9.262;2023-04-25T04:25:08;3.97;;;1.80;;
7759;SDS011;3924;48.830;9.262;2023-04-25T04:27:35;1.50;;;1.43;;
7759;SDS011;3924;48.830;9.262;2023-04-25T04:30:02;1.50;;;1.40;;
7759;SDS011;3924;48.830;9.262;2023-04-25T04:32:29;1.80;;;1.70;;
7759;SDS011;3924;48.830;9.262;2023-04-25T04:34:56;1.73;;;1.63;;
7759;SDS011;3924;48.830;9.262;2023-04-25T04:37:23;1.60;;;1.60;;
7759;SDS011;3924;48.830;9.262;2023-04-25T04:39:50;3.60;;;1.60;;
7759;SDS011;3924;48.830;9.262;2023-04-25T04:42:16;1.50;;;1.33;;
7759;SDS011;3924;48.830;9.262;2023-04-25T04:44:43;2.20;;;1.70;;
7759;SDS011;3924;48.830;9.262;2023-04-25T04:47:10;1.37;;;1.30;;
7759;SDS011;3924;48.830;9.262;2023-04-25T04:49:40;1.53;;;1.40;;
7759;SDS011;3924;48.830;9.262;2023-04-25T04:52:06;1.73;;;1.63;;
7759;SDS011;3924;48.830;9.262;2023-04-25T04:54:32;3.47;;;1.93;;
7759;SDS011;3924;48.830;9.262;2023-04-25T04:57:01;1.67;;;1.57;;
7759;SDS011;3924;48.830;9.262;2023-04-25T04:59:27;1.50;;;1.40;;
7759;SDS011;3924;48.830;9.262;2023-04-25T05:01:54;6.20;;;1.93;;
7759;SDS011;3924;48.830;9.262;2023-04-25T05:04:20;1.13;;;1.13;;
7759;SDS011;3924;48.830;9.262;2023-04-25T05:06:47;1.70;;;1.60;;
7759;SDS011;3924;48.830;9.262;2023-04-25T05:09:14;3.23;;;1.90;;
7759;SDS011;3924;48.830;9.262;2023-04-25T05:11:41;2.33;;;1.73;;
7759;SDS011;3924;48.830;9.262;2023-04-25T05:14:07;1.63;;;1.53;;
7759;SDS011;3924;48.830;9.262;2023-04-25T05:16:34;3.20;;;1.97;;
7759;SDS011;3924;48.830;9.262;2023-04-25T05:19:01;2.23;;;1.83;;
7759;SDS011;3924;48.830;9.262;2023-04-25T05:21:27;1.70;;;1.63;;
7759;SDS011;3924;48.830;9.262;2023-04-25T05:23:54;2.20;;;2.10;;
7759;SDS011;3924;48.830;9.262;2023-04-25T05:26:21;3.20;;;2.23;;
7759;SDS011;3924;48.830;9.262;2023-04-25T05:28:48;2.63;;;2.03;;
7759;SDS011;3924;48.830;9.262;2023-04-25T05:31:14;1.80;;;1.70;;
7759;SDS011;3924;48.830;9.262;2023-04-25T05:33:41;3.20;;;2.00;;
7759;SDS011;3924;48.830;9.262;2023-04-25T05:36:07;2.30;;;2.10;;
7759;SDS011;3924;48.830;9.262;2023-04-25T05:38:34;1.63;;;1.53;;
7759;SDS011;3924;48.830;9.262;2023-04-25T05:41:00;2.07;;;1.97;;
7759;SDS011;3924;48.830;9.262;2023-04-25T05:43:27;2.57;;;1.70;;
7759;SDS011;3924;48.830;9.262;2023-04-25T05:45:53;1.53;;;1.43;;
7759;SDS011;3924;48.830;9.262;2023-04-25T05:48:20;2.13;;;1.67;;
7759;SDS011;3924;48.830;9.262;2023-04-25T05:50:46;2.10;;;1.90;;
7759;SDS011;3924;48.830;9.262;2023-04-25T05:53:12;1.97;;;1.87;;
7759;SDS011;3924;48.830;9.262;2023-04-25T05:55:39;3.83;;;1.83;;
7759;SDS011;3924;48.830;9.262;2023-04-25T05:58:06;1.90;;;1.80;;
7759;SDS011;3924;48.830;9.262;2023-04-25T06:00:33;2.63;;;2.37;;
7759;SDS011;3924;48.830;9.262;2023-04-25T06:02:59;2.60;;;2.20;;
7759;SDS011;3924;48.830;9.262;2023-04-25T06:05:27;2.37;;;2.20;;
7759;SDS011;3924;48.830;9.262;2023-04-25T06:07:53;2.47;;;2.27;;
7759;SDS011;3924;48.830;9.262;2023-04-25T06:10:20;2.43;;;2.23;;
7759;SDS011;3924;48.830;9.262;2023-04-25T06:12:47;2.13;;;2.03;;
7759;SDS011;3924;48.830;9.262;2023-04-25T06:15:13;2.07;;;1.83;;
7759;SDS011;3924;48.830;9.262;2023-04-25T06:17:53;2.20;;;2.10;;
7759;SDS011;3924;48.830;9.262;2023-04-25T06:20:20;2.33;;;2.13;;
7759;SDS011;3924;48.830;9.262;2023-04-25T06:22:49;3.13;;;2.20;;
7759;SDS011;3924;48.830;9.262;2023-04-25T06:25:17;3.13;;;2.00;;
7759;SDS011;3924;48.830;9.262;2023-04-25T06:27:44;2.97;;;2.00;;
7759;SDS011;3924;48.830;9.262;2023-04-25T06:30:11;2.53;;;2.33;;
7759;SDS011;3924;48.830;9.262;2023-04-25T06:32:38;2.27;;;2.10;;
7759;SDS011;3924;48.830;9.262;2023-04-25T06:35:05;4.37;;;2.60;;
7759;SDS011;3924;48.830;9.262;2023-04-25T06:37:32;2.00;;;1.90;;
7759;SDS011;3924;48.830;9.262;2023-04-25T06:39:58;2.13;;;1.93;;
7759;SDS011;3924;48.830;9.262;2023-04-25T06:42:25;3.47;;;2.33;;
7759;SDS011;3924;48.830;9.262;2023-04-25T06:44:51;2.07;;;1.97;;
7759;SDS011;3924;48.830;9.262;2023-04-25T06:47:17;3.17;;;2.03;;
7759;SDS011;3924;48.830;9.262;2023-04-25T06:49:44;2.67;;;2.13;;
7759;SDS011;3924;48.830;9.262;2023-04-25T06:52:10;3.13;;;2.23;;
7759;SDS011;3924;48.830;9.262;2023-04-25T06:54:37;2.30;;;2.10;;
7759;SDS011;3924;48.830;9.262;2023-04-25T06:57:03;2.23;;;2.03;;
7759;SDS011;3924;48.830;9.262;2023-04-25T06:59:30;2.57;;;2.37;;
7759;SDS011;3924;48.830;9.262;2023-04-25T07:01:56;2.27;;;2.10;;
7759;SDS011;3924;48.830;9.262;2023-04-25T07:04:23;3.23;;;2.07;;
7759;SDS011;3924;48.830;9.262;2023-04-25T07:06:49;1.77;;;1.67;;
7759;SDS011;3924;48.830;9.262;2023-04-25T07:09:16;2.00;;;1.90;;
7759;SDS011;3924;48.830;9.262;2023-04-25T07:11:43;1.90;;;1.80;;
7759;SDS011;3924;48.830;9.262;2023-04-25T07:14:09;2.03;;;1.93;;
7759;SDS011;3924;48.830;9.262;2023-04-25T07:16:35;2.27;;;2.07;;
7759;SDS011;3924;48.830;9.262;2023-04-25T07:19:02;2.57;;;2.30;;
7759;SDS011;3924;48.830;9.262;2023-04-25T07:21:29;2.77;;;2.40;;
7759;SDS011;3924;48.830;9.262;2023-04-25T07:23:57;2.17;;;2.07;;
7759;SDS011;3924;48.830;9.262;2023-04-25T07:26:23;5.90;;;2.00;;
7759;SDS011;3924;48.830;9.262;2023-04-25T07:28:50;2.17;;;2.03;;
7759;SDS011;3924;48.830;9.262;2023-04-25T07:31:17;2.30;;;1.77;;
7759;SDS011;3924;48.830;9.262;2023-04-25T07:33:44;2.43;;;2.23;;
7759;SDS011;3924;48.830;9.262;2023-04-25T07:36:13;2.17;;;2.07;;
7759;SDS011;3924;48.830;9.262;2023-04-25T07:38:41;1.93;;;1.73;;
7759;SDS011;3924;48.830;9.262;2023-04-25T07:41:07;3.57;;;1.90;;
7759;SDS011;3924;48.830;9.262;2023-04-25T07:43:34;2.10;;;2.00;;
7759;SDS011;3924;48.830;9.262;2023-04-25T07:46:00;1.97;;;1.83;;
7759;SDS011;3924;48.830;9.262;2023-04-25T07:48:27;2.67;;;2.47;;
7759;SDS011;3924;48.830;9.262;2023-04-25T07:50:53;1.97;;;1.87;;
7759;SDS011;3924;48.830;9.262;2023-04-25T07:53:20;3.50;;;2.67;;
7759;SDS011;3924;48.830;9.262;2023-04-25T07:55:47;4.53;;;2.87;;
7759;SDS011;3924;48.830;9.262;2023-04-25T07:58:13;3.23;;;2.83;;
7759;SDS011;3924;48.830;9.262;2023-04-25T08:00:41;3.70;;;2.27;;
7759;SDS011;3924;48.830;9.262;2023-04-25T08:03:09;2.67;;;2.47;;
7759;SDS011;3924;48.830;9.262;2023-04-25T08:05:35;3.87;;;2.37;;
7759;SDS011;3924;48.830;9.262;2023-04-25T08:08:02;2.57;;;2.23;;
7759;SDS011;3924;48.830;9.262;2023-04-25T08:10:29;2.93;;;2.70;;
7759;SDS011;3924;48.830;9.262;2023-04-25T08:12:55;3.23;;;3.03;;
7759;SDS011;3924;48.830;9.262;2023-04-25T08:15:21;5.00;;;2.90;;
7759;SDS011;3924;48.830;9.262;2023-04-25T08:17:48;4.23;;;2.73;;
7759;SDS011;3924;48.830;9.262;2023-04-25T08:20:14;3.43;;;2.87;;
7759;SDS011;3924;48.830;9.262;2023-04-25T08:22:41;2.57;;;1.97;;
7759;SDS011;3924;48.830;9.262;2023-04-25T08:25:07;2.87;;;2.67;;
7759;SDS011;3924;48.830;9.262;2023-04-25T08:27:34;4.13;;;2.73;;
7759;SDS011;3924;48.830;9.262;2023-04-25T08:30:01;2.50;;;2.30;;
7759;SDS011;3924;48.830;9.262;2023-04-25T08:32:29;4.87;;;3.20;;
7759;SDS011;3924;48.830;9.262;2023-04-25T08:34:56;3.13;;;2.83;;
7759;SDS011;3924;48.830;9.262;2023-04-25T08:37:22;3.03;;;2.73;;
7759;SDS011;3924;48.830;9.262;2023-04-25T08:39:49;4.60;;;3.00;;
7759;SDS011;3924;48.830;9.262;2023-04-25T08:42:18;4.63;;;3.43;;
7759;SDS011;3924;48.830;9.262;2023-04-25T08:44:47;5.20;;;3.20;;
7759;SDS011;3924;48.830;9.262;2023-04-25T08:47:14;4.67;;;3.30;;
7759;SDS011;3924;48.830;9.262;2023-04-25T08:49:42;4.43;;;3.53;;
7759;SDS011;3924;48.830;9.262;2023-04-25T08:52:12;4.17;;;3.77;;
7759;SDS011;3924;48.830;9.262;2023-04-25T08:54:43;3.90;;;3.50;;
7759;SDS011;3924;48.830;9.262;2023-04-25T08:57:14;4.00;;;3.27;;
7759;SDS011;3924;48.830;9.262;2023-04-25T08:59:41;4.80;;;2.70;;
7759;SDS011;3924;48.830;9.262;2023-04-25T09:02:12;4.17;;;2.67;;
7759;SDS011;3924;48.830;9.262;2023-04-25T09:04:43;1.90;;;1.80;;
7759;SDS011;3924;48.830;9.262;2023-04-25T09:07:10;3.33;;;2.33;;
7759;SDS011;3924;48.830;9.262;2023-04-25T09:09:36;3.87;;;3.10;;
7759;SDS011;3924;48.830;9.262;2023-04-25T09:12:03;3.83;;;2.80;;
7759;SDS011;3924;48.830;9.262;2023-04-25T09:14:29;2.40;;;2.30;;
7759;SDS011;3924;48.830;9.262;2023-04-25T09:22:06;4.10;;;3.70;;
7759;SDS011;3924;48.830;9.262;2023-04-25T09:24:43;3.77;;;3.47;;
7759;SDS011;3924;48.830;9.262;2023-04-25T09:27:13;4.90;;;3.10;;
7759;SDS011;3924;48.830;9.262;2023-04-25T09:29:44;3.33;;;3.03;;
7759;SDS011;3924;48.830;9.262;2023-04-25T09:32:22;3.20;;;3.00;;
7759;SDS011;3924;48.830;9.262;2023-04-25T09:34:54;5.73;;;3.17;;
7759;SDS011;3924;48.830;9.262;2023-04-25T09:39:52;3.33;;;3.03;;
7759;SDS011;3924;48.830;9.262;2023-04-25T09:42:24;5.03;;;3.20;;
7759;SDS011;3924;48.830;9.262;2023-04-25T09:44:52;3.10;;;2.80;;
7759;SDS011;3924;48.830;9.262;2023-04-25T09:47:20;2.60;;;2.40;;
7759;SDS011;3924;48.830;9.262;2023-04-25T09:49:50;3.17;;;2.87;;
7759;SDS011;3924;48.830;9.262;2023-04-25T09:52:19;2.80;;;2.40;;
7759;SDS011;3924;48.830;9.262;2023-04-25T09:54:50;4.00;;;3.00;;
7759;SDS011;3924;48.830;9.262;2023-04-25T09:57:18;5.13;;;2.97;;
7759;SDS011;3924;48.830;9.262;2023-04-25T09:59:47;4.80;;;2.77;;
7759;SDS011;3924;48.830;9.262;2023-04-25T10:02:22;2.47;;;2.33;;
7759;SDS011;3924;48.830;9.262;2023-04-25T10:04:53;4.53;;;2.60;;
7759;SDS011;3924;48.830;9.262;2023-04-25T10:07:22;2.20;;;2.10;;
7759;SDS011;3924;48.830;9.262;2023-04-25T10:09:58;1.67;;;1.57;;
7759;SDS011;3924;48.830;9.262;2023-04-25T10:12:30;2.43;;;1.90;;
7759;SDS011;3924;48.830;9.262;2023-04-25T10:14:58;1.40;;;1.40;;
7759;SDS011;3924;48.830;9.262;2023-04-25T10:17:27;2.37;;;1.60;;
7759;SDS011;3924;48.830;9.262;2023-04-25T10:19:54;1.73;;;1.63;;
7759;SDS011;3924;48.830;9.262;2023-04-25T10:23:06;1.90;;;1.80;;
7759;SDS011;3924;48.830;9.262;2023-04-25T10:25:12;2.50;;;2.30;;
7759;SDS011;3924;48.830;9.262;2023-04-25T10:27:39;1.50;;;1.40;;
7759;SDS011;3924;48.830;9.262;2023-04-25T10:41:03;2.17;;;1.97;;
7759;SDS011;3924;48.830;9.262;2023-04-25T10:50:38;3.57;;;2.10;;
7759;SDS011;3924;48.830;9.262;2023-04-25T10:57:25;2.07;;;1.97;;
7759;SDS011;3924;48.830;9.262;2023-04-25T11:00:48;3.30;;;2.23;;
7759;SDS011;3924;48.830;9.262;2023-04-25T11:10:49;2.00;;;1.90;;
7759;SDS011;3924;48.830;9.262;2023-04-25T11:16:42;1.90;;;1.80;;
7759;SDS011;3924;48.830;9.262;2023-04-25T11:19:10;1.93;;;1.83;;
7759;SDS011;3924;48.830;9.262;2023-04-25T11:21:40;1.83;;;1.73;;
7759;SDS011;3924;48.830;9.262;2023-04-25T11:24:08;2.00;;;1.90;;
7759;SDS011;3924;48.830;9.262;2023-04-25T11:26:35;1.50;;;1.50;;
7759;SDS011;3924;48.830;9.262;2023-04-25T11:29:23;3.17;;;1.90;;
7759;SDS011;3924;48.830;9.262;2023-04-25T11:32:09;1.50;;;1.50;;
7759;SDS011;3924;48.830;9.262;2023-04-25T11:34:42;1.70;;;1.60;;
7759;SDS011;3924;48.830;9.262;2023-04-25T11:37:11;2.53;;;1.57;;
7759;SDS011;3924;48.830;9.262;2023-04-25T11:39:46;2.17;;;1.40;;
7759;SDS011;3924;48.830;9.262;2023-04-25T11:42:14;2.00;;;1.80;;
7759;SDS011;3924;48.830;9.262;2023-04-25T11:44:45;1.97;;;1.87;;
7759;SDS011;3924;48.830;9.262;2023-04-25T11:47:13;1.97;;;1.77;;
7759;SDS011;3924;48.830;9.262;2023-04-25T11:53:59;2.47;;;2.27;;
7759;SDS011;3924;48.830;9.262;2023-04-25T12:01:01;1.90;;;1.80;;
7759;SDS011;3924;48.830;9.262;2023-04-25T12:03:50;3.07;;;2.10;;
7759;SDS011;3924;48.830;9.262;2023-04-25T12:06:58;2.57;;;1.90;;
7759;SDS011;3924;48.830;9.262;2023-04-25T12:28:14;2.80;;;2.53;;
7759;SDS011;3924;48.830;9.262;2023-04-25T12:35:44;6.73;;;2.57;;
7759;SDS011;3924;48.830;9.262;2023-04-25T12:42:36;2.73;;;2.53;;
7759;SDS011;3924;48.830;9.262;2023-04-25T12:46:18;4.57;;;2.50;;
7759;SDS011;3924;48.830;9.262;2023-04-25T12:53:27;4.37;;;2.83;;
7759;SDS011;3924;48.830;9.262;2023-04-25T13:02:05;2.47;;;2.27;;
7759;SDS011;3924;48.830;9.262;2023-04-25T13:05:29;4.32;;;3.75;;
7759;SDS011;3924;48.830;9.262;2023-04-25T13:08:11;5.00;;;3.53;;
7759;SDS011;3924;48.830;9.262;2023-04-25T13:11:54;3.23;;;2.80;;
7759;SDS011;3924;48.830;9.262;2023-04-25T13:15:02;3.90;;;3.20;;
7759;SDS011;3924;48.830;9.262;2023-04-25T13:18:00;4.50;;;3.17;;
7759;SDS011;3924;48.830;9.262;2023-04-25T13:32:34;6.40;;;4.03;;
7759;SDS011;3924;48.830;9.262;2023-04-25T13:35:06;4.47;;;4.07;;
7759;SDS011;3924;48.830;9.262;2023-04-25T13:37:36;2.70;;;2.50;;
7759;SDS011;3924;48.830;9.262;2023-04-25T13:40:04;5.00;;;3.77;;
7759;SDS011;3924;48.830;9.262;2023-04-25T13:42:32;5.80;;;4.00;;
7759;SDS011;3924;48.830;9.262;2023-04-25T13:44:58;2.67;;;2.43;;
7759;SDS011;3924;48.830;9.262;2023-04-25T13:47:25;3.87;;;3.40;;
7759;SDS011;3924;48.830;9.262;2023-04-25T13:49:53;3.93;;;3.50;;
7759;SDS011;3924;48.830;9.262;2023-04-25T13:52:20;5.40;;;4.33;;
7759;SDS011;3924;48.830;9.262;2023-04-25T13:54:47;5.90;;;4.37;;
7759;SDS011;3924;48.830;9.262;2023-04-25T13:57:13;6.50;;;4.60;;
7759;SDS011;3924;48.830;9.262;2023-04-25T13:59:40;4.90;;;4.10;;
7759;SDS011;3924;48.830;9.262;2023-04-25T14:02:06;9.23;;;4.47;;
7759;SDS011;3924;48.830;9.262;2023-04-25T14:04:33;5.87;;;3.80;;
7759;SDS011;3924;48.830;9.262;2023-04-25T14:07:00;5.30;;;4.07;;
7759;SDS011;3924;48.830;9.262;2023-04-25T14:09:28;3.63;;;3.33;;
7759;SDS011;3924;48.830;9.262;2023-04-25T14:11:55;7.00;;;5.63;;
7759;SDS011;3924;48.830;9.262;2023-04-25T14:14:21;6.23;;;5.03;;
7759;SDS011;3924;48.830;9.262;2023-04-25T14:16:49;5.37;;;4.70;;
7759;SDS011;3924;48.830;9.262;2023-04-25T14:19:17;5.60;;;4.20;;
7759;SDS011;3924;48.830;9.262;2023-04-25T14:21:47;4.47;;;4.07;;
7759;SDS011;3924;48.830;9.262;2023-04-25T14:24:13;6.80;;;4.30;;
7759;SDS011;3924;48.830;9.262;2023-04-25T14:26:40;10.80;;;5.23;;
7759;SDS011;3924;48.830;9.262;2023-04-25T14:29:07;5.40;;;4.63;;
7759;SDS011;3924;48.830;9.262;2023-04-25T14:31:34;9.13;;;4.37;;
7759;SDS011;3924;48.830;9.262;2023-04-25T14:34:01;3.27;;;2.97;;
7759;SDS011;3924;48.830;9.262;2023-04-25T14:36:28;3.60;;;3.30;;
7759;SDS011;3924;48.830;9.262;2023-04-25T14:38:55;3.37;;;3.07;;
7759;SDS011;3924;48.830;9.262;2023-04-25T14:41:21;3.43;;;3.23;;
7759;SDS011;3924;48.830;9.262;2023-04-25T14:43:49;5.03;;;3.77;;
7759;SDS011;3924;48.830;9.262;2023-04-25T14:46:16;4.10;;;3.60;;
7759;SDS011;3924;48.830;9.262;2023-04-25T14:48:42;3.23;;;2.93;;
7759;SDS011;3924;48.830;9.262;2023-04-25T14:51:09;5.20;;;3.70;;
7759;SDS011;3924;48.830;9.262;2023-04-25T14:53:36;6.07;;;3.93;;
7759;SDS011;3924;48.830;9.262;2023-04-25T14:56:03;6.20;;;3.30;;
7759;SDS011;3924;48.830;9.262;2023-04-25T14:58:30;3.57;;;3.27;;
7759;SDS011;3924;48.830;9.262;2023-04-25T15:00:57;5.07;;;3.40;;
7759;SDS011;3924;48.830;9.262;2023-04-25T15:03:24;5.27;;;4.03;;
7759;SDS011;3924;48.830;9.262;2023-04-25T15:05:52;2.23;;;1.83;;
7759;SDS011;3924;48.830;9.262;2023-04-25T15:08:18;6.57;;;4.17;;
7759;SDS011;3924;48.830;9.262;2023-04-25T15:10:45;6.93;;;3.30;;
7759;SDS011;3924;48.830;9.262;2023-04-25T15:13:13;4.10;;;3.30;;
7759;SDS011;3924;48.830;9.262;2023-04-25T15:15:39;5.13;;;3.90;;
7759;SDS011;3924;48.830;9.262;2023-04-25T15:18:06;5.10;;;3.50;;
7759;SDS011;3924;48.830;9.262;2023-04-25T15:20:32;4.45;;;3.17;;
7759;SDS011;3924;48.830;9.262;2023-04-25T15:22:59;3.47;;;3.17;;
7759;SDS011;3924;48.830;9.262;2023-04-25T15:25:25;4.13;;;3.20;;
7759;SDS011;3924;48.830;9.262;2023-04-25T15:27:54;3.43;;;3.00;;
7759;SDS011;3924;48.830;9.262;2023-04-25T15:30:21;4.80;;;2.60;;
7759;SDS011;3924;48.830;9.262;2023-04-25T15:32:47;4.37;;;3.07;;
7759;SDS011;3924;48.830;9.262;2023-04-25T15:35:14;3.17;;;2.87;;
7759;SDS011;3924;48.830;9.262;2023-04-25T15:37:41;2.90;;;2.70;;
7759;SDS011;3924;48.830;9.262;2023-04-25T15:40:08;3.57;;;2.80;;
7759;SDS011;3924;48.830;9.262;2023-04-25T15:42:45;3.30;;;2.90;;
7759;SDS011;3924;48.830;9.262;2023-04-25T15:45:13;5.20;;;3.37;;
7759;SDS011;3924;48.830;9.262;2023-04-25T15:47:42;4.70;;;3.27;;
7759;SDS011;3924;48.830;9.262;2023-04-25T15:50:10;4.33;;;2.93;;
7759;SDS011;3924;48.830;9.262;2023-04-25T15:52:37;2.47;;;2.23;;
7759;SDS011;3924;48.830;9.262;2023-04-25T15:55:04;3.33;;;2.63;;
7759;SDS011;3924;48.830;9.262;2023-04-25T15:57:32;5.20;;;3.63;;
7759;SDS011;3924;48.830;9.262;2023-04-25T15:59:59;3.33;;;2.33;;
7759;SDS011;3924;48.830;9.262;2023-04-25T16:02:28;2.93;;;2.73;;
7759;SDS011;3924;48.830;9.262;2023-04-25T16:04:55;4.00;;;3.60;;
7759;SDS011;3924;48.830;9.262;2023-04-25T16:07:22;7.27;;;2.67;;
7759;SDS011;3924;48.830;9.262;2023-04-25T16:09:49;5.87;;;3.20;;
7759;SDS011;3924;48.830;9.262;2023-04-25T16:12:15;7.30;;;3.40;;
7759;SDS011;3924;48.830;9.262;2023-04-25T16:14:41;3.63;;;3.17;;
7759;SDS011;3924;48.830;9.262;2023-04-25T16:17:08;5.30;;;3.80;;
7759;SDS011;3924;48.830;9.262;2023-04-25T16:19:34;7.87;;;3.80;;
7759;SDS011;3924;48.830;9.262;2023-04-25T16:22:01;7.47;;;4.10;;
7759;SDS011;3924;48.830;9.262;2023-04-25T16:24:27;5.07;;;3.37;;
7759;SDS011;3924;48.830;9.262;2023-04-25T16:26:54;5.63;;;3.93;;
7759;SDS011;3924;48.830;9.262;2023-04-25T16:29:20;4.57;;;3.13;;
7759;SDS011;3924;48.830;9.262;2023-04-25T16:31:47;3.67;;;3.37;;
7759;SDS011;3924;48.830;9.262;2023-04-25T16:34:13;4.87;;;3.37;;
7759;SDS011;3924;48.830;9.262;2023-04-25T16:36:40;2.80;;;2.40;;
7759;SDS011;3924;48.830;9.262;2023-04-25T16:39:07;2.90;;;2.70;;
7759;SDS011;3924;48.830;9.262;2023-04-25T16:41:33;5.17;;;3.70;;
7759;SDS011;3924;48.830;9.262;2023-04-25T16:44:00;3.23;;;2.90;;
7759;SDS011;3924;48.830;9.262;2023-04-25T16:46:27;5.57;;;3.73;;
7759;SDS011;3924;48.830;9.262;2023-04-25T16:48:53;8.97;;;4.33;;
7759;SDS011;3924;48.830;9.262;2023-04-25T16:51:20;5.57;;;4.00;;
7759;SDS011;3924;48.830;9.262;2023-04-25T16:53:47;8.57;;;3.47;;
7759;SDS011;3924;48.830;9.262;2023-04-25T16:56:13;5.67;;;3.60;;
7759;SDS011;3924;48.830;9.262;2023-04-25T16:58:40;5.07;;;3.27;;
7759;SDS011;3924;48.830;9.262;2023-04-25T17:01:07;3.30;;;2.87;;
7759;SDS011;3924;48.830;9.262;2023-04-25T17:03:33;5.67;;;3.50;;
7759;SDS011;3924;48.830;9.262;2023-04-25T17:06:01;3.77;;;3.37;;
7759;SDS011;3924;48.830;9.262;2023-04-25T17:08:28;3.07;;;2.77;;
7759;SDS011;3924;48.830;9.262;2023-04-25T17:10:54;5.67;;;3.87;;
7759;SDS011;3924;48.830;9.262;2023-04-25T17:13:21;4.50;;;4.03;;
7759;SDS011;3924;48.830;9.262;2023-04-25T17:15:56;3.73;;;3.27;;
7759;SDS011;3924;48.830;9.262;2023-04-25T17:18:24;6.13;;;3.80;;
7759;SDS011;3924;48.830;9.262;2023-04-25T17:20:51;6.00;;;3.57;;
7759;SDS011;3924;48.830;9.262;2023-04-25T17:23:18;4.13;;;3.23;;
7759;SDS011;3924;48.830;9.262;2023-04-25T17:25:45;2.77;;;2.57;;
7759;SDS011;3924;48.830;9.262;2023-04-25T17:28:11;3.97;;;3.67;;
7759;SDS011;3924;48.830;9.262;2023-04-25T17:30:38;6.07;;;3.90;;
7759;SDS011;3924;48.830;9.262;2023-04-25T17:33:05;3.50;;;3.10;;
7759;SDS011;3924;48.830;9.262;2023-04-25T17:35:32;3.40;;;2.90;;
7759;SDS011;3924;48.830;9.262;2023-04-25T17:38:01;6.17;;;3.43;;
7759;SDS011;3924;48.830;9.262;2023-04-25T17:40:29;4.23;;;2.97;;
7759;SDS011;3924;48.830;9.262;2023-04-25T17:42:57;6.07;;;3.10;;
7759;SDS011;3924;48.830;9.262;2023-04-25T17:45:24;3.93;;;2.67;;
7759;SDS011;3924;48.830;9.262;2023-04-25T17:47:50;3.23;;;2.73;;
7759;SDS011;3924;48.830;9.262;2023-04-25T17:50:18;5.10;;;2.47;;
7759;SDS011;3924;48.830;9.262;2023-04-25T17:52:45;3.17;;;2.87;;
7759;SDS011;3924;48.830;9.262;2023-04-25T17:55:13;4.47;;;3.13;;
7759;SDS011;3924;48.830;9.262;2023-04-25T17:57:40;3.90;;;3.20;;
7759;SDS011;3924;48.830;9.262;2023-04-25T18:00:06;3.97;;;3.20;;